Larkinsburg, Illinois
Current Conditions -  °F | °C
As of 1:35 AM on Thursday 23 Oct 2014 (Local Time) from K1H2 Reporting Station
Clear Clear  
Wind Chill: 37°   Ceiling: Unl
Heat Index: 37°   Visibility: 7mi
Dew Point: 35°   Wind: 0mph
Humidity: 91%   Direction: NA
Pressure: 30.25"   Gusts: NA
Location:  38.891°N, 88.6694°W
Report Text: K1H2 230635Z AUTO 00000KT 7SM CLR 03/02 A3025 RMK AO2 T00300016
Loading
Personal Weather Stations






























Interactive Weather Map
Tropical Storm Tracking
New forecast layout! Learn more

10-Day Weather Forecast

Advertisements
Track Severe Weather on mobile